Time;durP1;ratioP1;P1;durP2;ratioP2;P2;SDS_P1;SDS_P2;PMS_P1;PMS_P2;Temp;Humidity;BMP_temperature;BMP_pressure;BME280_temperature;BME280_humidity;BME280_pressure;Samples;Min_cycle;Max_cycle;Signal;HPM_P1;HPM_P2
2022/04/11 00:00:00;;;;;;;;;;;;;;;14.98;55.91;101717.44;1044515;28;642;-62
2022/04/11 00:00:50;;;;;;;;;;;;;;;14.96;56.34;101711.31;1043884;28;657;-62
2022/04/11 00:01:43;;;;;;;;;;;;;;;14.96;56.35;101703.25;1044059;28;574;-61
2022/04/11 00:02:33;;;;;;;;;;;;;;;14.94;56.79;101704.22;1043846;28;650;-62
2022/04/11 00:03:24;;;;;;;;;;;;;;;14.93;55.94;101702.50;1044541;28;671;-62
2022/04/11 00:04:14;;;;;;;;;;;;;;;14.94;56.05;101704.22;1043822;28;702;-62
2022/04/11 00:05:05;;;;;;;;;;;;;;;14.93;55.79;101705.19;1044554;28;599;-62
2022/04/11 00:05:55;;;;;;;;;;;;;;;14.93;55.77;101707.84;1044605;28;705;-62
2022/04/11 00:06:45;;;;;;;;;;;;;;;14.93;55.96;101704.31;1044446;28;649;-62
2022/04/11 00:07:36;;;;;;;;;;;;;;;14.92;55.94;101700.78;1044634;28;607;-62
2022/04/11 00:08:26;;;;;;;;;;;;;;;14.91;55.89;101708.94;1044462;28;605;-62
2022/04/11 00:09:17;;;;;;;;;;;;;;;14.90;56.61;101702.69;1043424;28;1566;-62
2022/04/11 00:10:07;;;;;;;;;;;;;;;14.91;56.15;101704.41;1044182;28;782;-62
2022/04/11 00:10:58;;;;;;;;;;;;;;;14.94;56.17;101703.34;1044192;28;1433;-62
2022/04/11 00:11:48;;;;;;;;;;;;;;;14.92;56.54;101700.78;1044067;28;674;-64
2022/04/11 00:12:38;;;;;;;;;;;;;;;14.90;55.48;101693.78;1043303;28;664;-62
2022/04/11 00:13:29;;;;;;;;;;;;;;;14.91;55.61;101699.06;1044019;28;752;-63
2022/04/11 00:14:19;;;;;;;;;;;;;;;14.93;55.76;101697.13;1045122;28;756;-62
2022/04/11 00:15:10;;;;;;;;;;;;;;;14.90;55.60;101689.28;1043436;28;729;-62
2022/04/11 00:16:00;;;;;;;;;;;;;;;14.91;56.11;101690.13;1044050;28;670;-61
2022/04/11 00:16:50;;;;;;;;;;;;;;;14.89;56.13;101695.59;1043870;28;686;-61
2022/04/11 00:17:41;;;;;;;;;;;;;;;14.89;56.19;101695.59;1043539;28;678;-61
2022/04/11 00:18:31;;;;;;;;;;;;;;;14.89;56.34;101687.56;1043869;28;717;-61
2022/04/11 00:19:22;;;;;;;;;;;;;;;14.89;55.90;101700.13;1043991;28;597;-62
2022/04/11 00:20:12;;;;;;;;;;;;;;;14.87;55.56;101697.53;1043161;28;714;-61
2022/04/11 00:21:02;;;;;;;;;;;;;;;14.86;55.65;101692.31;1043272;28;674;-60
2022/04/11 00:21:53;;;;;;;;;;;;;;;14.86;56.30;101690.47;1043968;28;702;-61
2022/04/11 00:22:43;;;;;;;;;;;;;;;14.84;55.96;101684.38;1044489;28;634;-61
2022/04/11 00:23:34;;;;;;;;;;;;;;;14.84;55.21;101687.03;1044057;28;756;-62
2022/04/11 00:24:24;;;;;;;;;;;;;;;14.83;55.38;101679.97;1044526;28;694;-62
2022/04/11 00:25:15;;;;;;;;;;;;;;;14.83;56.30;101688.00;1044455;28;571;-62
2022/04/11 00:26:05;;;;;;;;;;;;;;;14.83;56.15;101693.38;1044915;28;666;-62
2022/04/11 00:26:55;;;;;;;;;;;;;;;14.83;55.70;101690.69;1044747;28;725;-62
2022/04/11 00:27:46;;;;;;;;;;;;;;;14.82;55.89;101680.91;1044796;28;590;-62
2022/04/11 00:28:36;;;;;;;;;;;;;;;14.81;55.25;101683.72;1044687;28;731;-62
2022/04/11 00:29:27;;;;;;;;;;;;;;;14.79;55.33;101681.13;1044864;28;909;-62
2022/04/11 00:30:17;;;;;;;;;;;;;;;14.80;55.44;101680.16;1045881;28;732;-61
2022/04/11 00:31:07;;;;;;;;;;;;;;;14.82;55.63;101678.25;1044115;28;695;-62
2022/04/11 00:31:58;;;;;;;;;;;;;;;14.81;55.51;101675.66;1044264;28;643;-62
2022/04/11 00:32:48;;;;;;;;;;;;;;;14.80;55.68;101677.47;1044698;28;686;-62
2022/04/11 00:33:39;;;;;;;;;;;;;;;14.79;55.97;101674.91;1044452;28;624;-62
2022/04/11 00:34:29;;;;;;;;;;;;;;;14.78;55.54;101681.22;1044844;28;725;-62
2022/04/11 00:35:20;;;;;;;;;;;;;;;14.79;55.46;101673.06;1044901;28;671;-63
2022/04/11 00:36:10;;;;;;;;;;;;;;;14.78;56.02;101679.41;1044755;28;690;-62
2022/04/11 00:37:00;;;;;;;;;;;;;;;14.77;55.86;101672.31;1045234;28;605;-62
2022/04/11 00:37:51;;;;;;;;;;;;;;;14.79;56.16;101681.13;1044306;28;662;-63
2022/04/11 00:38:41;;;;;;;;;;;;;;;14.76;55.41;101675.97;1045262;28;768;-63
2022/04/11 00:39:32;;;;;;;;;;;;;;;14.76;55.52;101669.75;1044223;28;651;-63
2022/04/11 00:40:22;;;;;;;;;;;;;;;14.77;55.71;101669.63;1044282;28;688;-63
2022/04/11 00:41:12;;;;;;;;;;;;;;;14.77;55.88;101682.19;1041169;28;651;-62
2022/04/11 00:42:03;;;;;;;;;;;;;;;14.76;54.99;101675.97;1041729;28;673;-62
2022/04/11 00:42:53;;;;;;;;;;;;;;;14.76;55.72;101672.44;1041097;28;626;-62
2022/04/11 00:43:44;;;;;;;;;;;;;;;14.75;55.58;101679.63;1040660;28;649;-62
2022/04/11 00:44:34;;;;;;;;;;;;;;;14.76;55.63;101673.28;1040657;28;693;-62
2022/04/11 00:45:24;;;;;;;;;;;;;;;14.75;55.40;101670.69;1040614;28;681;-63
2022/04/11 00:46:15;;;;;;;;;;;;;;;14.73;55.73;101662.75;1041704;28;883;-62
2022/04/11 00:47:05;;;;;;;;;;;;;;;14.74;54.96;101666.31;1041554;28;1955;-62
2022/04/11 00:47:56;;;;;;;;;;;;;;;14.73;55.21;101673.50;1041721;28;662;-62
2022/04/11 00:48:46;;;;;;;;;;;;;;;14.73;56.04;101670.81;1044498;28;720;-62
2022/04/11 00:49:36;;;;;;;;;;;;;;;14.72;55.47;101669.09;1044319;28;602;-62
2022/04/11 00:50:27;;;;;;;;;;;;;;;14.72;56.23;101663.72;1040692;28;627;-62
2022/04/11 00:51:17;;;;;;;;;;;;;;;14.72;55.88;101663.72;1044969;28;708;-62
2022/04/11 00:52:08;;;;;;;;;;;;;;;14.73;55.02;101665.44;1044979;28;642;-64
2022/04/11 00:52:58;;;;;;;;;;;;;;;14.73;55.02;101669.94;1040676;28;662;-63
2022/04/11 00:53:49;;;;;;;;;;;;;;;14.71;55.71;101663.81;1041723;28;689;-62
2022/04/11 00:54:39;;;;;;;;;;;;;;;14.70;55.24;101667.47;1041670;28;704;-63
2022/04/11 00:55:29;;;;;;;;;;;;;;;14.73;55.52;101667.25;1040798;28;705;-62
2022/04/11 00:56:20;;;;;;;;;;;;;;;14.72;55.49;101666.41;1041417;28;688;-63
2022/04/11 00:57:10;;;;;;;;;;;;;;;14.71;55.77;101661.16;1041166;28;693;-63
2022/04/11 00:58:01;;;;;;;;;;;;;;;14.71;55.63;101664.69;1041642;28;648;-61
2022/04/11 00:58:51;;;;;;;;;;;;;;;14.69;55.38;101658.56;1041108;28;638;-62
2022/04/11 00:59:42;;;;;;;;;;;;;;;14.70;55.38;101660.28;1041658;28;693;-62
2022/04/11 01:00:34;;;;;;;;;;;;;;;14.68;55.34;101662.25;1041666;28;625;-61
2022/04/11 01:01:24;;;;;;;;;;;;;;;14.68;55.39;101659.56;1041169;28;638;-61
2022/04/11 01:02:14;;;;;;;;;;;;;;;14.68;55.13;101658.69;1041473;28;1099;-61
2022/04/11 01:03:05;;;;;;;;;;;;;;;14.68;55.38;101656.88;1041544;28;787;-61
2022/04/11 01:03:55;;;;;;;;;;;;;;;14.66;55.58;101653.44;1040455;28;651;-61
2022/04/11 01:04:46;;;;;;;;;;;;;;;14.67;55.48;101663.22;1037255;28;654;-62
2022/04/11 01:05:37;;;;;;;;;;;;;;;14.67;54.93;101652.47;1037284;28;665;-61
2022/04/11 01:06:28;;;;;;;;;;;;;;;14.66;55.60;101649.91;1041641;28;590;-61
2022/04/11 01:07:20;;;;;;;;;;;;;;;14.66;55.56;101656.13;1041088;28;1922;-63
2022/04/11 01:08:10;;;;;;;;;;;;;;;14.67;54.87;101651.63;1037257;28;740;-63
2022/04/11 01:09:01;;;;;;;;;;;;;;;14.64;55.35;101658.03;1039467;28;1561;-63
2022/04/11 01:09:51;;;;;;;;;;;;;;;14.64;54.82;101651.81;1041634;28;663;-63
2022/04/11 01:10:41;;;;;;;;;;;;;;;14.63;55.04;101660.84;1039785;28;638;-64
2022/04/11 01:11:32;;;;;;;;;;;;;;;14.62;55.00;101654.59;1042530;28;1550;-63
2022/04/11 01:12:22;;;;;;;;;;;;;;;14.62;54.64;101654.59;1045749;28;594;-63
2022/04/11 01:13:13;;;;;;;;;;;;;;;14.60;54.83;101656.53;1046045;28;626;-62
2022/04/11 01:14:03;;;;;;;;;;;;;;;14.61;55.31;101660.06;1045795;28;708;-63
2022/04/11 01:14:53;;;;;;;;;;;;;;;14.61;55.12;101660.94;1045790;28;618;-62
2022/04/11 01:15:44;;;;;;;;;;;;;;;14.60;55.15;101661.91;1045768;28;700;-62
2022/04/11 01:16:34;;;;;;;;;;;;;;;14.61;54.80;101662.75;1045803;28;535;-62
2022/04/11 01:17:25;;;;;;;;;;;;;;;14.59;55.07;101662.84;1045652;28;634;-62
2022/04/11 01:18:15;;;;;;;;;;;;;;;14.59;55.17;101658.34;1045708;28;646;-62
2022/04/11 01:19:06;;;;;;;;;;;;;;;14.59;54.73;101660.19;1045628;28;551;-62
2022/04/11 01:19:56;;;;;;;;;;;;;;;14.58;55.57;101653.94;1045643;28;832;-62
2022/04/11 01:20:46;;;;;;;;;;;;;;;14.57;55.42;101660.28;1045631;28;654;-62
2022/04/11 01:21:37;;;;;;;;;;;;;;;14.58;55.04;101661.13;1045259;28;595;-60
2022/04/11 01:22:27;;;;;;;;;;;;;;;14.57;54.50;101660.28;1041264;28;808;-61
2022/04/11 01:23:18;;;;;;;;;;;;;;;14.57;54.71;101664.78;1040706;28;635;-60
2022/04/11 01:24:08;;;;;;;;;;;;;;;14.55;55.25;101658.66;1041799;28;701;-61
2022/04/11 01:24:59;;;;;;;;;;;;;;;14.54;54.78;101657.81;1045610;28;737;-60
2022/04/11 01:25:49;;;;;;;;;;;;;;;14.54;54.79;101665.00;1045581;28;657;-60
2022/04/11 01:26:40;;;;;;;;;;;;;;;14.53;55.27;101657.91;1045669;28;653;-60
2022/04/11 01:27:33;;;;;;;;;;;;;;;14.53;55.24;101664.13;1045608;28;585;-61
2022/04/11 01:28:23;;;;;;;;;;;;;;;14.52;55.24;101656.19;1045065;28;684;-61
2022/04/11 01:29:13;;;;;;;;;;;;;;;14.53;54.54;101660.59;1045593;28;625;-61
2022/04/11 01:30:04;;;;;;;;;;;;;;;14.51;55.32;101658.00;1045555;28;766;-61
2022/04/11 01:30:54;;;;;;;;;;;;;;;14.52;54.87;101650.81;1045626;28;582;-61
2022/04/11 01:31:45;;;;;;;;;;;;;;;14.50;55.19;101653.63;1045629;28;709;-60
2022/04/11 01:32:35;;;;;;;;;;;;;;;14.51;54.74;101660.69;1046098;28;669;-61
2022/04/11 01:33:25;;;;;;;;;;;;;;;14.52;54.65;101653.50;1045966;28;704;-60
2022/04/11 01:34:16;;;;;;;;;;;;;;;14.48;55.06;101652.03;1045694;28;716;-61
2022/04/11 01:35:06;;;;;;;;;;;;;;;14.51;54.68;101659.88;1045693;28;708;-60
2022/04/11 01:35:57;;;;;;;;;;;;;;;14.49;54.67;101651.06;1045559;28;574;-61
2022/04/11 01:36:47;;;;;;;;;;;;;;;14.49;54.83;101651.91;1044917;28;638;-61
2022/04/11 01:37:38;;;;;;;;;;;;;;;14.49;55.29;101645.69;1045566;28;654;-61
2022/04/11 01:38:28;;;;;;;;;;;;;;;14.48;54.55;101650.19;1045606;28;724;-61
2022/04/11 01:39:18;;;;;;;;;;;;;;;14.47;54.49;101643.13;1044300;28;1388;-60
2022/04/11 01:40:09;;;;;;;;;;;;;;;14.47;54.35;101645.78;1045071;28;619;-61
2022/04/11 01:40:59;;;;;;;;;;;;;;;14.48;54.55;101644.84;1045171;28;646;-60
2022/04/11 01:41:50;;;;;;;;;;;;;;;14.47;55.00;101648.47;1045031;28;666;-60
2022/04/11 01:42:42;;;;;;;;;;;;;;;14.49;54.40;101648.38;1044944;28;658;-61
2022/04/11 01:43:33;;;;;;;;;;;;;;;14.47;54.96;101648.47;1045606;28;653;-60
2022/04/11 01:44:23;;;;;;;;;;;;;;;14.46;54.99;101648.56;1044975;28;702;-60
2022/04/11 01:45:14;;;;;;;;;;;;;;;14.45;54.83;101649.53;1045005;28;709;-61
2022/04/11 01:46:04;;;;;;;;;;;;;;;14.45;54.51;101649.53;1045142;28;681;-61
2022/04/11 01:46:54;;;;;;;;;;;;;;;14.43;55.05;101646.09;1044946;28;774;-61
2022/04/11 01:47:46;;;;;;;;;;;;;;;14.42;55.29;101644.38;1045056;28;594;-61
2022/04/11 01:48:36;;;;;;;;;;;;;;;14.42;54.66;101649.75;1044918;28;682;-61
2022/04/11 01:49:27;;;;;;;;;;;;;;;14.41;54.63;101640.84;1044946;28;666;-61
2022/04/11 01:50:17;;;;;;;;;;;;;;;14.41;55.04;101648.03;1045602;28;650;-61
2022/04/11 01:51:08;;;;;;;;;;;;;;;14.42;54.90;101644.38;1040669;28;720;-61
2022/04/11 01:51:58;;;;;;;;;;;;;;;14.42;54.31;101639.03;1041123;28;721;-61
2022/04/11 01:52:49;;;;;;;;;;;;;;;14.40;54.57;101636.44;1044871;28;630;-61
2022/04/11 01:53:39;;;;;;;;;;;;;;;14.39;54.98;101639.19;1044790;28;678;-61
2022/04/11 01:54:30;;;;;;;;;;;;;;;14.40;54.36;101640.91;1044431;28;701;-61
2022/04/11 01:55:20;;;;;;;;;;;;;;;14.39;55.05;101641.88;1044348;28;872;-62
2022/04/11 01:56:10;;;;;;;;;;;;;;;14.38;55.17;101642.84;1044324;28;642;-62
2022/04/11 01:57:01;;;;;;;;;;;;;;;14.38;54.40;101642.84;1044487;28;717;-61
2022/04/11 01:57:51;;;;;;;;;;;;;;;14.38;54.63;101637.47;1044308;28;788;-61
2022/04/11 01:58:42;;;;;;;;;;;;;;;14.39;55.01;101641.88;1044494;28;556;-62
2022/04/11 01:59:32;;;;;;;;;;;;;;;14.37;54.88;101647.34;1039866;28;646;-62
2022/04/11 02:00:23;;;;;;;;;;;;;;;14.36;55.20;101639.41;1040777;28;658;-62
2022/04/11 02:01:13;;;;;;;;;;;;;;;14.35;54.49;101645.72;1040852;28;634;-62
2022/04/11 02:02:03;;;;;;;;;;;;;;;14.36;54.89;101639.41;1040547;28;1142;-62
2022/04/11 02:02:54;;;;;;;;;;;;;;;14.37;55.05;101641.97;1040895;28;632;-62
2022/04/11 02:03:45;;;;;;;;;;;;;;;14.36;54.91;101639.41;1040806;28;681;-62
2022/04/11 02:04:35;;;;;;;;;;;;;;;14.36;55.31;101634.03;1040834;28;864;-61
2022/04/11 02:05:26;;;;;;;;;;;;;;;14.36;54.38;101634.88;1040278;28;657;-61
2022/04/11 02:06:16;;;;;;;;;;;;;;;14.36;54.93;101634.03;1040866;28;745;-61
2022/04/11 02:07:06;;;;;;;;;;;;;;;14.38;54.90;101637.47;1040647;28;1910;-61
2022/04/11 02:07:57;;;;;;;;;;;;;;;14.38;54.81;101637.47;1040803;28;606;-62
2022/04/11 02:08:47;;;;;;;;;;;;;;;14.38;54.62;101638.34;1040722;28;619;-62
2022/04/11 02:09:38;;;;;;;;;;;;;;;14.36;54.30;101634.03;1040760;28;650;-61
2022/04/11 02:10:28;;;;;;;;;;;;;;;14.34;54.46;101633.28;1040863;28;721;-62
2022/04/11 02:11:19;;;;;;;;;;;;;;;14.32;54.24;101643.28;1040701;28;655;-62
2022/04/11 02:12:09;;;;;;;;;;;;;;;14.32;54.25;101638.78;1040811;28;642;-62
2022/04/11 02:12:59;;;;;;;;;;;;;;;14.33;54.72;101635.09;1040843;28;665;-62
2022/04/11 02:13:50;;;;;;;;;;;;;;;14.33;54.38;101628.91;1040709;28;698;-62
2022/04/11 02:14:40;;;;;;;;;;;;;;;14.31;54.62;101639.72;1040849;28;1164;-63
2022/04/11 02:15:31;;;;;;;;;;;;;;;14.31;54.20;101636.19;1037013;28;697;-62
2022/04/11 02:16:23;;;;;;;;;;;;;;;14.32;54.87;101632.53;1037455;28;752;-62
2022/04/11 02:17:13;;;;;;;;;;;;;;;14.34;54.95;101636.81;1041877;28;665;-62
2022/04/11 02:18:04;;;;;;;;;;;;;;;14.30;54.97;101629.97;1040716;28;674;-62
2022/04/11 02:18:54;;;;;;;;;;;;;;;14.30;53.98;101629.97;1040817;28;697;-62
2022/04/11 02:19:44;;;;;;;;;;;;;;;14.30;54.31;101629.09;1040354;28;642;-62
2022/04/11 02:20:35;;;;;;;;;;;;;;;14.28;54.18;101631.88;1040761;28;733;-63
2022/04/11 02:21:25;;;;;;;;;;;;;;;14.30;54.25;101635.31;1040627;28;627;-62
2022/04/11 02:22:16;;;;;;;;;;;;;;;14.30;54.05;101635.31;1040694;28;849;-62
2022/04/11 02:23:06;;;;;;;;;;;;;;;14.28;54.87;101636.38;1040753;28;658;-62
2022/04/11 02:23:57;;;;;;;;;;;;;;;14.28;54.43;101634.56;1040701;28;651;-62
2022/04/11 02:24:47;;;;;;;;;;;;;;;14.29;54.09;101632.75;1040721;28;693;-62
2022/04/11 02:25:40;;;;;;;;;;;;;;;14.29;54.06;101635.44;1040653;28;646;-62
2022/04/11 02:26:30;;;;;;;;;;;;;;;14.27;54.81;101629.31;1040771;28;741;-62
2022/04/11 02:27:20;;;;;;;;;;;;;;;14.27;54.41;101634.66;1040535;28;1906;-62
2022/04/11 02:28:12;;;;;;;;;;;;;;;14.27;54.24;101632.00;1040681;28;695;-62
2022/04/11 02:29:02;;;;;;;;;;;;;;;14.24;54.38;101636.59;1042462;28;1546;-62
2022/04/11 02:29:53;;;;;;;;;;;;;;;14.23;54.74;101632.19;1044892;28;725;-62
2022/04/11 02:30:43;;;;;;;;;;;;;;;14.25;54.66;101637.44;1040442;28;741;-62
2022/04/11 02:31:34;;;;;;;;;;;;;;;14.22;54.53;101635.84;1040559;28;618;-62
2022/04/11 02:32:24;;;;;;;;;;;;;;;14.24;54.65;101641.09;1045442;28;770;-61
2022/04/11 02:33:14;;;;;;;;;;;;;;;14.23;54.23;101634.00;1044880;28;595;-62
2022/04/11 02:34:05;;;;;;;;;;;;;;;14.22;54.81;101633.16;1044996;28;729;-62
2022/04/11 02:34:55;;;;;;;;;;;;;;;14.23;54.46;101637.56;1045323;28;708;-62
2022/04/11 02:35:46;;;;;;;;;;;;;;;14.23;54.55;101639.38;1044838;28;687;-61
2022/04/11 02:36:36;;;;;;;;;;;;;;;14.23;54.19;101639.38;1044946;28;660;-61
2022/04/11 02:37:27;;;;;;;;;;;;;;;14.22;54.63;101633.16;1044765;28;685;-61
2022/04/11 02:38:17;;;;;;;;;;;;;;;14.21;54.20;101631.44;1044845;28;586;-61
2022/04/11 02:39:07;;;;;;;;;;;;;;;14.19;54.57;101636.03;1044686;28;641;-61
2022/04/11 02:39:58;;;;;;;;;;;;;;;14.20;54.24;101640.44;1044796;28;656;-61
2022/04/11 02:40:48;;;;;;;;;;;;;;;14.19;54.20;101635.19;1044798;28;626;-61
2022/04/11 02:41:39;;;;;;;;;;;;;;;14.19;54.76;101638.72;1044734;28;650;-62
2022/04/11 02:42:29;;;;;;;;;;;;;;;14.18;54.06;101637.00;1044815;28;638;-62
2022/04/11 02:43:20;;;;;;;;;;;;;;;14.17;53.90;101629.91;1044618;28;610;-62
2022/04/11 02:44:10;;;;;;;;;;;;;;;14.16;54.68;101630.88;1044816;28;661;-62
2022/04/11 02:45:00;;;;;;;;;;;;;;;14.17;54.04;101631.72;1044623;28;685;-61
2022/04/11 02:45:51;;;;;;;;;;;;;;;14.17;54.05;101629.91;1044699;28;690;-62
2022/04/11 02:46:44;;;;;;;;;;;;;;;14.18;54.12;101630.78;1044825;28;665;-62
2022/04/11 02:47:35;;;;;;;;;;;;;;;14.17;53.83;101626.38;1044724;28;661;-62
2022/04/11 02:48:25;;;;;;;;;;;;;;;14.17;54.27;101634.41;1044731;28;821;-62
2022/04/11 02:49:15;;;;;;;;;;;;;;;14.15;54.25;101626.47;1044643;28;726;-61
2022/04/11 02:50:06;;;;;;;;;;;;;;;14.16;54.45;101624.66;1044790;28;701;-62
2022/04/11 02:50:56;;;;;;;;;;;;;;;14.14;54.59;101622.09;1044770;28;1248;-61
2022/04/11 02:51:47;;;;;;;;;;;;;;;14.13;54.56;101625.75;1044727;28;717;-61
2022/04/11 02:52:37;;;;;;;;;;;;;;;14.12;54.89;101625.84;1044863;28;688;-61
2022/04/11 02:53:27;;;;;;;;;;;;;;;14.12;54.62;101626.72;1044580;28;698;-61
2022/04/11 02:54:18;;;;;;;;;;;;;;;14.12;53.95;101620.50;1044791;28;705;-61
2022/04/11 02:55:08;;;;;;;;;;;;;;;14.11;54.00;101625.00;1044823;28;666;-62
2022/04/11 02:55:59;;;;;;;;;;;;;;;14.11;53.96;101630.34;1044718;28;756;-62
2022/04/11 02:56:49;;;;;;;;;;;;;;;14.09;53.65;101626.91;1044740;28;702;-62
2022/04/11 02:57:40;;;;;;;;;;;;;;;14.10;54.28;101623.28;1040783;28;606;-63
2022/04/11 02:58:31;;;;;;;;;;;;;;;14.08;54.23;101630.56;1040254;28;732;-62
2022/04/11 02:59:21;;;;;;;;;;;;;;;14.09;54.15;101634.09;1041830;28;681;-62
2022/04/11 03:00:12;;;;;;;;;;;;;;;14.07;54.54;101634.19;1039269;28;823;-62
2022/04/11 03:01:02;;;;;;;;;;;;;;;14.07;54.52;101628.81;1039701;28;602;-62
2022/04/11 03:01:52;;;;;;;;;;;;;;;14.06;53.71;101629.78;1040267;28;677;-62
2022/04/11 03:02:43;;;;;;;;;;;;;;;14.06;53.99;101621.75;1041164;28;665;-63
2022/04/11 03:03:33;;;;;;;;;;;;;;;14.05;53.87;101624.53;1040150;28;722;-62
2022/04/11 03:04:24;;;;;;;;;;;;;;;14.05;53.76;101625.38;1039336;28;650;-62
2022/04/11 03:05:14;;;;;;;;;;;;;;;14.07;54.39;101627.97;1039587;28;678;-62
2022/04/11 03:06:04;;;;;;;;;;;;;;;14.06;53.52;101621.75;1039806;28;654;-61
2022/04/11 03:06:55;;;;;;;;;;;;;;;14.06;53.75;101627.13;1039458;28;639;-61
2022/04/11 03:07:45;;;;;;;;;;;;;;;14.07;54.47;101627.97;1039591;28;616;-61
2022/04/11 03:08:36;;;;;;;;;;;;;;;14.07;54.13;101623.47;1039304;28;658;-61
2022/04/11 03:09:26;;;;;;;;;;;;;;;14.06;53.95;101631.59;1040104;28;689;-61
2022/04/11 03:10:16;;;;;;;;;;;;;;;14.05;54.07;101630.75;1039199;28;836;-61
2022/04/11 03:11:07;;;;;;;;;;;;;;;14.04;54.79;101628.16;1040101;28;752;-61
2022/04/11 03:11:57;;;;;;;;;;;;;;;14.04;54.16;101629.03;1039907;28;664;-61
2022/04/11 03:12:48;;;;;;;;;;;;;;;14.05;54.44;101630.75;1039427;28;706;-61
2022/04/11 03:13:38;;;;;;;;;;;;;;;14.05;54.51;101622.72;1039538;28;690;-60
2022/04/11 03:14:29;;;;;;;;;;;;;;;14.05;54.62;101630.75;1039191;28;646;-61
2022/04/11 03:15:19;;;;;;;;;;;;;;;14.03;53.81;101624.63;1040030;28;763;-61
2022/04/11 03:16:09;;;;;;;;;;;;;;;14.04;54.40;101615.63;1040476;28;629;-62
2022/04/11 03:17:00;;;;;;;;;;;;;;;14.04;54.45;101623.66;1039405;28;651;-62
2022/04/11 03:17:50;;;;;;;;;;;;;;;14.03;53.55;101615.72;1039089;28;662;-62
2022/04/11 03:18:41;;;;;;;;;;;;;;;14.03;54.11;101618.41;1039234;28;714;-62
2022/04/11 03:19:31;;;;;;;;;;;;;;;14.02;53.71;101619.38;1039536;28;659;-62
2022/04/11 03:20:22;;;;;;;;;;;;;;;14.01;54.08;101615.84;1040522;28;682;-62
2022/04/11 03:21:12;;;;;;;;;;;;;;;14.02;53.84;101625.59;1040158;28;618;-62
2022/04/11 03:22:02;;;;;;;;;;;;;;;14.04;54.42;101610.28;1039545;28;642;-62
2022/04/11 03:22:53;;;;;;;;;;;;;;;14.02;54.06;101614.88;1039815;28;626;-62
2022/04/11 03:23:43;;;;;;;;;;;;;;;14.04;53.29;101618.31;1040000;28;681;-62
2022/04/11 03:24:34;;;;;;;;;;;;;;;14.02;54.27;101609.50;1039212;28;631;-63
2022/04/11 03:25:24;;;;;;;;;;;;;;;14.01;53.78;101613.16;1039449;28;659;-62
2022/04/11 03:26:15;;;;;;;;;;;;;;;14.03;53.65;101611.22;1039194;28;639;-63
2022/04/11 03:27:05;;;;;;;;;;;;;;;14.04;54.01;101612.94;1039962;28;654;-62
2022/04/11 03:27:55;;;;;;;;;;;;;;;14.03;54.06;101613.06;1040093;28;650;-61
2022/04/11 03:28:46;;;;;;;;;;;;;;;14.06;53.73;101616.38;1042021;28;1539;-62
2022/04/11 03:29:36;;;;;;;;;;;;;;;14.07;54.37;101614.56;1043554;28;686;-62
2022/04/11 03:30:27;;;;;;;;;;;;;;;14.11;53.67;101618.78;1044546;28;630;-61
2022/04/11 03:31:17;;;;;;;;;;;;;;;14.14;53.74;101613.22;1044583;28;602;-61
2022/04/11 03:32:08;;;;;;;;;;;;;;;14.19;53.69;101617.28;1042972;28;709;-62
2022/04/11 03:32:58;;;;;;;;;;;;;;;14.29;53.87;101613.97;1044562;28;655;-62
2022/04/11 03:33:48;;;;;;;;;;;;;;;14.39;53.76;101613.22;1044485;28;670;-62
2022/04/11 03:34:39;;;;;;;;;;;;;;;14.54;53.17;101619.38;1043418;28;780;-62
2022/04/11 03:35:29;;;;;;;;;;;;;;;14.63;52.96;101615.22;1044746;28;693;-62
2022/04/11 03:36:20;;;;;;;;;;;;;;;14.74;52.40;101613.50;1044533;28;650;-62
2022/04/11 03:37:10;;;;;;;;;;;;;;;14.92;51.86;101614.03;1044415;28;1502;-62
2022/04/11 03:38:01;;;;;;;;;;;;;;;15.04;51.80;101615.00;1044539;28;717;-62
2022/04/11 03:38:51;;;;;;;;;;;;;;;15.14;51.91;101613.38;1043554;28;717;-62
2022/04/11 03:39:41;;;;;;;;;;;;;;;15.24;51.29;101609.03;1044479;28;641;-62
2022/04/11 03:40:32;;;;;;;;;;;;;;;15.37;51.26;101612.56;1044598;28;745;-62
2022/04/11 03:41:23;;;;;;;;;;;;;;;15.48;51.00;101615.31;1044548;28;658;-63
2022/04/11 03:42:13;;;;;;;;;;;;;;;15.60;50.62;101610.91;1043597;28;654;-62
2022/04/11 03:43:04;;;;;;;;;;;;;;;15.69;50.55;101612.91;1044465;28;645;-62
2022/04/11 03:43:54;;;;;;;;;;;;;;;15.82;50.08;101613.72;1044513;28;679;-63
2022/04/11 03:44:44;;;;;;;;;;;;;;;15.93;49.72;101611.09;1044475;28;682;-63
2022/04/11 03:45:35;;;;;;;;;;;;;;;16.10;49.51;101603.59;1043301;28;667;-63
2022/04/11 03:46:27;;;;;;;;;;;;;;;16.24;49.39;101606.94;1044573;28;643;-62
2022/04/11 03:47:18;;;;;;;;;;;;;;;16.39;48.95;101615.66;1045107;28;1901;-63
2022/04/11 03:48:08;;;;;;;;;;;;;;;16.49;48.62;101607.72;1044559;28;885;-63
2022/04/11 03:48:59;;;;;;;;;;;;;;;16.61;49.06;101612.16;1044487;28;646;-63
2022/04/11 03:49:49;;;;;;;;;;;;;;;16.77;48.30;101612.69;1043464;28;745;-63
2022/04/11 03:50:40;;;;;;;;;;;;;;;16.82;47.96;101615.03;1042874;28;1334;-61
2022/04/11 03:51:30;;;;;;;;;;;;;;;16.88;47.88;101610.00;1041103;28;578;-61
2022/04/11 03:52:20;;;;;;;;;;;;;;;16.89;48.02;101616.25;1041061;28;689;-61
2022/04/11 03:53:11;;;;;;;;;;;;;;;16.92;47.71;101608.78;1041021;28;634;-61
2022/04/11 03:54:01;;;;;;;;;;;;;;;16.97;47.89;101619.19;1040946;28;666;-61
2022/04/11 03:54:52;;;;;;;;;;;;;;;17.05;47.71;101610.50;1040339;28;705;-62
2022/04/11 03:55:42;;;;;;;;;;;;;;;17.14;47.19;101613.31;1040932;28;685;-62
2022/04/11 03:56:32;;;;;;;;;;;;;;;17.12;47.37;101612.59;1040573;28;595;-61
2022/04/11 03:57:23;;;;;;;;;;;;;;;17.19;47.21;101619.22;1041670;28;1277;-61
2022/04/11 03:58:13;;;;;;;;;;;;;;;17.26;47.47;101616.84;1042226;28;1215;-61
2022/04/11 03:59:04;;;;;;;;;;;;;;;17.24;46.93;101614.28;1042381;28;1324;-62
2022/04/11 03:59:55;;;;;;;;;;;;;;;17.22;47.75;101618.06;1042815;28;1099;-61
2022/04/11 04:00:45;;;;;;;;;;;;;;;17.24;47.17;101613.44;1041030;28;1174;-62
2022/04/11 04:01:36;;;;;;;;;;;;;;;17.27;47.57;101605.97;1043225;28;1122;-61
2022/04/11 04:02:26;;;;;;;;;;;;;;;17.35;47.10;101602.66;1042511;28;1286;-61
2022/04/11 04:03:16;;;;;;;;;;;;;;;17.32;46.77;101602.91;1043687;28;1142;-61
2022/04/11 04:04:07;;;;;;;;;;;;;;;17.36;46.59;101601.69;1041131;28;1118;-62
2022/04/11 04:04:57;;;;;;;;;;;;;;;17.34;47.18;101606.31;1043700;28;1098;-61
2022/04/11 04:05:48;;;;;;;;;;;;;;;17.35;47.08;101608.03;1041064;28;1102;-61
2022/04/11 04:06:38;;;;;;;;;;;;;;;17.40;47.48;101600.41;1043751;28;1169;-61
2022/04/11 04:07:28;;;;;;;;;;;;;;;17.44;47.02;101607.28;1041115;28;1906;-62
2022/04/11 04:08:19;;;;;;;;;;;;;;;17.39;46.94;101609.47;1043727;28;1198;-62
2022/04/11 04:09:09;;;;;;;;;;;;;;;17.37;46.85;101607.91;1043240;28;1106;-62
2022/04/11 04:10:00;;;;;;;;;;;;;;;17.37;47.33;101606.09;1044301;28;1155;-62
2022/04/11 04:10:50;;;;;;;;;;;;;;;17.41;46.91;101601.28;1043257;28;1098;-62
2022/04/11 04:11:41;;;;;;;;;;;;;;;17.38;46.88;101599.69;1043073;28;1130;-62
2022/04/11 04:12:31;;;;;;;;;;;;;;;17.43;46.72;101600.19;1043419;28;1079;-62
2022/04/11 04:13:22;;;;;;;;;;;;;;;17.45;47.56;101602.75;1043762;28;1135;-62
2022/04/11 04:14:12;;;;;;;;;;;;;;;17.43;47.30;101600.19;1041812;28;1106;-63
2022/04/11 04:15:02;;;;;;;;;;;;;;;17.37;47.53;101595.31;1043882;28;1194;-62
2022/04/11 04:15:53;;;;;;;;;;;;;;;17.45;47.46;101597.34;1041317;28;1170;-62
2022/04/11 04:16:43;;;;;;;;;;;;;;;17.48;47.14;101603.34;1039261;28;796;-62
2022/04/11 04:17:34;;;;;;;;;;;;;;;17.52;47.15;101609.34;1039070;28;667;-62
2022/04/11 04:18:24;;;;;;;;;;;;;;;17.51;46.83;101600.41;1039318;28;647;-62
2022/04/11 04:19:14;;;;;;;;;;;;;;;17.50;47.28;101601.41;1039269;28;667;-62
2022/04/11 04:20:05;;;;;;;;;;;;;;;17.57;46.63;101601.72;1040052;28;658;-62
2022/04/11 04:20:55;;;;;;;;;;;;;;;17.58;46.87;101598.06;1040968;28;725;-63
2022/04/11 04:21:46;;;;;;;;;;;;;;;17.57;47.36;101601.72;1039073;28;655;-62
2022/04/11 04:22:36;;;;;;;;;;;;;;;17.65;46.84;101597.47;1039354;28;637;-62
2022/04/11 04:23:26;;;;;;;;;;;;;;;17.68;46.62;101599.06;1039531;28;672;-62
2022/04/11 04:24:19;;;;;;;;;;;;;;;17.68;46.34;101602.63;1040387;28;582;-62
2022/04/11 04:25:09;;;;;;;;;;;;;;;17.74;46.86;101592.28;1039355;28;683;-62